createdAt,value
2024-03-12T00:02:11.132Z,0.94
2024-03-12T00:03:13.699Z,0.82
2024-03-12T00:04:16.041Z,0.83
2024-03-12T00:05:19.845Z,0.85
2024-03-12T00:06:22.899Z,0.88
2024-03-12T00:07:25.344Z,0.89
2024-03-12T00:08:27.999Z,0.88
2024-03-12T00:09:30.342Z,0.88
2024-03-12T00:10:33.146Z,0.89
2024-03-12T00:11:36.482Z,0.90
2024-03-12T00:12:39.111Z,0.89
2024-03-12T00:13:41.654Z,0.88
2024-03-12T00:14:43.933Z,0.86
2024-03-12T00:15:46.408Z,0.87
2024-03-12T00:16:48.752Z,0.85
2024-03-12T00:17:52.505Z,0.85
2024-03-12T00:18:55.050Z,0.85
2024-03-12T00:19:57.199Z,0.83
2024-03-12T00:20:59.942Z,0.82
2024-03-12T00:22:02.210Z,0.84
2024-03-12T00:23:04.853Z,0.82
2024-03-12T00:24:07.220Z,0.83
2024-03-12T00:25:10.049Z,0.84
2024-03-12T00:26:13.076Z,0.83
2024-03-12T00:27:15.241Z,0.83
2024-03-12T00:28:17.892Z,0.85
2024-03-12T00:29:20.464Z,0.85
2024-03-12T00:30:23.851Z,0.87
2024-03-12T00:31:26.279Z,0.88
2024-03-12T00:32:28.760Z,0.90
2024-03-12T00:33:31.454Z,0.91
2024-03-12T00:34:34.268Z,0.91
2024-03-12T00:35:37.009Z,0.90
2024-03-12T00:36:39.641Z,0.88
2024-03-12T00:37:42.245Z,0.89
2024-03-12T00:38:44.706Z,0.89
2024-03-12T00:39:47.442Z,0.89
2024-03-12T00:40:50.063Z,0.89
2024-03-12T00:41:52.525Z,0.89
2024-03-12T00:42:55.094Z,0.87
2024-03-12T00:43:59.055Z,0.86
2024-03-12T00:45:01.490Z,0.87
2024-03-12T00:46:05.310Z,0.87
2024-03-12T00:47:07.789Z,0.88
2024-03-12T00:48:12.875Z,0.88
2024-03-12T00:49:15.351Z,0.92
2024-03-12T00:50:18.292Z,0.96
2024-03-12T00:51:20.593Z,0.96
2024-03-12T00:52:22.949Z,0.99
2024-03-12T00:53:25.449Z,0.98
2024-03-12T00:54:27.843Z,0.98
2024-03-12T00:55:31.583Z,0.97
2024-03-12T00:56:34.237Z,0.93
2024-03-12T00:57:37.204Z,0.90
2024-03-12T00:58:39.628Z,0.84
2024-03-12T00:59:42.094Z,0.79
2024-03-12T01:00:44.546Z,0.75
2024-03-12T01:01:47.152Z,0.70
2024-03-12T01:02:49.686Z,0.69
2024-03-12T01:03:52.096Z,0.69
2024-03-12T01:04:54.614Z,0.68
2024-03-12T01:05:58.100Z,0.67
2024-03-12T01:07:00.906Z,0.64
2024-03-12T01:08:03.853Z,0.60
2024-03-12T01:09:06.215Z,0.58
2024-03-12T01:10:09.340Z,0.56
2024-03-12T01:11:11.673Z,0.55
2024-03-12T01:12:14.117Z,0.55
2024-03-12T01:13:16.629Z,0.57
2024-03-12T01:14:19.257Z,0.56
2024-03-12T01:15:22.366Z,0.49
2024-03-12T01:16:25.027Z,0.44
2024-03-12T01:17:27.572Z,0.44
2024-03-12T01:18:29.940Z,0.47
2024-03-12T01:19:33.165Z,0.46
2024-03-12T01:20:36.354Z,0.46
2024-03-12T01:21:38.893Z,0.46
2024-03-12T01:22:41.204Z,0.48
2024-03-12T01:23:43.555Z,0.53
2024-03-12T01:24:45.773Z,0.58
2024-03-12T01:25:48.105Z,0.59
2024-03-12T01:26:50.676Z,0.62
2024-03-12T01:27:52.965Z,0.66
2024-03-12T01:28:55.622Z,0.69
2024-03-12T01:29:58.070Z,0.69
2024-03-12T01:31:00.767Z,0.71
2024-03-12T01:32:03.156Z,0.71
2024-03-12T01:33:06.056Z,0.72
2024-03-12T01:34:08.790Z,0.72
2024-03-12T01:35:11.085Z,0.70
2024-03-12T01:36:13.673Z,0.68
2024-03-12T01:37:16.138Z,0.71
2024-03-12T01:38:18.461Z,0.73
2024-03-12T01:39:20.836Z,0.72
2024-03-12T01:40:24.253Z,0.73
2024-03-12T01:41:26.838Z,0.77
2024-03-12T01:42:29.261Z,0.80
2024-03-12T01:43:31.648Z,0.80
2024-03-12T01:44:34.823Z,0.82
2024-03-12T01:45:37.345Z,0.83
2024-03-12T01:46:40.305Z,0.82
2024-03-12T01:47:42.694Z,0.82
2024-03-12T01:48:45.232Z,0.80
2024-03-12T01:49:48.255Z,0.76
2024-03-12T01:50:51.067Z,0.78
2024-03-12T01:51:53.313Z,0.80
2024-03-12T01:54:08.481Z,0.93
2024-03-12T01:55:14.789Z,0.80
2024-03-12T01:56:17.396Z,0.81
2024-03-12T01:57:19.859Z,0.83
2024-03-12T01:58:22.358Z,0.86
2024-03-12T01:59:25.003Z,0.87
2024-03-12T02:00:27.603Z,0.85
2024-03-12T02:01:29.914Z,0.86
2024-03-12T02:02:32.598Z,0.88
2024-03-12T02:03:35.153Z,0.89
2024-03-12T02:04:37.689Z,0.88
2024-03-12T02:05:40.561Z,0.86
2024-03-12T02:06:43.375Z,0.90
2024-03-12T02:08:58.256Z,0.98
2024-03-12T02:10:01.064Z,0.85
2024-03-12T02:11:03.805Z,0.88
2024-03-12T02:12:06.659Z,0.90
2024-03-12T02:13:09.295Z,0.92
2024-03-12T02:14:11.996Z,0.93
2024-03-12T02:15:15.224Z,0.95
2024-03-12T02:16:17.774Z,0.94
2024-03-12T02:17:20.417Z,0.90
2024-03-12T02:18:22.800Z,0.87
2024-03-12T02:19:25.195Z,0.86
2024-03-12T02:20:27.561Z,0.88
2024-03-12T02:21:29.876Z,0.91
2024-03-12T02:22:32.334Z,0.93
2024-03-12T02:24:45.202Z,1.08
2024-03-12T02:25:47.706Z,0.95
2024-03-12T02:26:50.185Z,0.94
2024-03-12T02:27:53.649Z,0.94
2024-03-12T02:28:56.756Z,0.93
2024-03-12T02:29:59.538Z,0.92
2024-03-12T02:31:02.105Z,0.93
2024-03-12T02:32:04.952Z,0.94
2024-03-12T02:33:07.668Z,0.90
2024-03-12T02:34:10.114Z,0.86
2024-03-12T02:35:13.063Z,0.82
2024-03-12T02:36:15.535Z,0.83
2024-03-12T02:37:18.405Z,0.85
2024-03-12T02:38:20.976Z,0.85
2024-03-12T02:39:23.374Z,0.88
2024-03-12T02:40:25.994Z,0.91
2024-03-12T02:41:28.469Z,0.93
2024-03-12T02:42:30.755Z,0.97
2024-03-12T02:43:33.202Z,0.97
2024-03-12T02:44:35.857Z,0.97
2024-03-12T02:45:38.254Z,0.99
2024-03-12T02:46:40.892Z,0.97
2024-03-12T02:47:43.492Z,0.96
2024-03-12T02:48:46.057Z,0.96
2024-03-12T02:49:48.592Z,0.93
2024-03-12T02:50:51.366Z,0.90
2024-03-12T02:51:53.748Z,0.90
2024-03-12T02:52:56.293Z,0.90
2024-03-12T02:53:58.658Z,0.90
2024-03-12T02:55:01.256Z,0.88
2024-03-12T02:56:05.022Z,0.89
2024-03-12T02:57:07.804Z,0.91
2024-03-12T02:58:10.355Z,0.92
2024-03-12T02:59:12.820Z,0.91
2024-03-12T03:00:16.588Z,0.91
2024-03-12T03:01:19.186Z,0.94
2024-03-12T03:02:21.649Z,0.90
2024-03-12T03:03:24.124Z,0.89
2024-03-12T03:04:26.369Z,0.88
2024-03-12T03:05:29.131Z,0.87
2024-03-12T03:06:31.641Z,0.88
2024-03-12T03:07:34.995Z,0.89
2024-03-12T03:08:37.460Z,0.86
2024-03-12T03:09:39.873Z,0.86
2024-03-12T03:10:42.656Z,0.85
2024-03-12T03:11:46.184Z,0.87
2024-03-12T03:12:48.898Z,0.86
2024-03-12T03:13:51.126Z,0.86
2024-03-12T03:14:53.599Z,0.86
2024-03-12T03:15:55.997Z,0.88
2024-03-12T03:16:58.925Z,0.91
2024-03-12T03:18:01.427Z,0.92
2024-03-12T03:19:03.813Z,0.94
2024-03-12T03:20:07.818Z,0.94
2024-03-12T03:21:10.167Z,0.93
2024-03-12T03:22:12.815Z,0.95
2024-03-12T03:23:15.037Z,0.94
2024-03-12T03:24:17.609Z,0.92
2024-03-12T03:25:22.830Z,0.93
2024-03-12T03:26:25.399Z,0.92
2024-03-12T03:27:27.911Z,0.92
2024-03-12T03:28:30.227Z,0.93
2024-03-12T03:29:34.616Z,0.93
2024-03-12T03:30:37.220Z,0.93
2024-03-12T03:31:39.599Z,0.92
2024-03-12T03:32:42.201Z,0.93
2024-03-12T03:33:45.000Z,0.92
2024-03-12T03:34:48.710Z,0.95
2024-03-12T03:35:51.294Z,0.94
2024-03-12T03:36:53.834Z,0.96
2024-03-12T03:37:56.296Z,0.95
2024-03-12T03:38:58.673Z,0.95
2024-03-12T03:40:04.096Z,0.94
2024-03-12T03:41:07.587Z,0.96
2024-03-12T03:42:10.093Z,0.95
2024-03-12T03:43:12.869Z,0.97
2024-03-12T03:44:15.385Z,0.98
2024-03-12T03:45:18.162Z,0.98
2024-03-12T03:46:20.795Z,0.97
2024-03-12T03:47:23.129Z,0.99
2024-03-12T03:48:25.419Z,0.97
2024-03-12T03:49:27.917Z,0.98
2024-03-12T03:50:30.522Z,0.98
2024-03-12T03:51:33.070Z,0.97
2024-03-12T03:52:35.519Z,0.98
2024-03-12T03:53:38.046Z,1.00
2024-03-12T03:54:40.518Z,0.99
2024-03-12T03:55:42.929Z,0.98
2024-03-12T03:56:45.648Z,1.00
2024-03-12T03:57:48.800Z,1.00
2024-03-12T03:58:51.248Z,1.03
2024-03-12T03:59:53.697Z,1.04
2024-03-12T04:00:56.227Z,1.06
2024-03-12T04:01:58.760Z,1.06
2024-03-12T04:03:01.102Z,1.06
2024-03-12T04:04:04.386Z,1.09
2024-03-12T04:05:08.167Z,1.12
2024-03-12T04:06:12.271Z,1.12
2024-03-12T04:07:14.833Z,1.15
2024-03-12T04:08:17.319Z,1.14
2024-03-12T04:09:19.731Z,1.16
2024-03-12T04:10:22.140Z,1.18
2024-03-12T04:11:24.694Z,1.20
2024-03-12T04:12:28.695Z,1.19
2024-03-12T04:13:31.790Z,1.19
2024-03-12T04:14:34.447Z,1.22
2024-03-12T04:15:36.952Z,1.22
2024-03-12T04:16:39.614Z,1.21
2024-03-12T04:17:42.053Z,1.19
2024-03-12T04:18:44.489Z,1.13
2024-03-12T04:19:46.883Z,1.13
2024-03-12T04:20:49.436Z,1.14
2024-03-12T04:21:51.929Z,1.15
2024-03-12T04:22:54.178Z,1.17
2024-03-12T04:23:56.668Z,1.20
2024-03-12T04:24:59.047Z,1.22
2024-03-12T04:26:01.457Z,1.24
2024-03-12T04:27:03.816Z,1.25
2024-03-12T04:28:06.521Z,1.26
2024-03-12T04:29:08.941Z,1.30
2024-03-12T04:30:12.776Z,1.34
2024-03-12T04:31:15.502Z,1.34
2024-03-12T04:32:18.096Z,1.36
2024-03-12T04:33:20.359Z,1.37
2024-03-12T04:34:22.815Z,1.36
2024-03-12T04:35:25.168Z,1.42
2024-03-12T04:36:27.833Z,1.41
2024-03-12T04:37:30.225Z,1.44
2024-03-12T04:38:33.380Z,1.44
2024-03-12T04:39:37.705Z,1.46
2024-03-12T04:40:40.776Z,1.46
2024-03-12T04:41:43.233Z,1.45
2024-03-12T04:42:45.622Z,1.45
2024-03-12T04:43:48.882Z,1.49
2024-03-12T04:44:51.650Z,1.48
2024-03-12T04:45:54.344Z,1.52
2024-03-12T04:46:56.595Z,1.53
2024-03-12T04:47:59.200Z,1.55
2024-03-12T04:49:01.666Z,1.58
2024-03-12T04:50:04.600Z,1.59
2024-03-12T04:51:07.058Z,1.58
2024-03-12T04:52:09.440Z,1.61
2024-03-12T04:53:11.899Z,1.59
2024-03-12T04:54:14.156Z,1.58
2024-03-12T04:55:16.848Z,1.58
2024-03-12T04:56:19.584Z,1.56
2024-03-12T04:57:21.951Z,1.56
2024-03-12T04:58:24.616Z,1.53
2024-03-12T04:59:27.097Z,1.52
2024-03-12T05:00:32.659Z,1.52
2024-03-12T05:01:35.910Z,1.51
2024-03-12T05:02:38.367Z,1.50
2024-03-12T05:03:40.964Z,1.50
2024-03-12T05:04:43.370Z,1.53
2024-03-12T05:05:45.955Z,1.54
2024-03-12T05:06:48.671Z,1.53
2024-03-12T05:07:52.041Z,1.56
2024-03-12T05:08:54.497Z,1.57
2024-03-12T05:09:57.011Z,1.56
2024-03-12T05:11:02.237Z,1.56
2024-03-12T05:12:04.444Z,1.59
2024-03-12T05:13:06.991Z,1.59
2024-03-12T05:14:09.464Z,1.58
2024-03-12T05:15:12.042Z,1.57
2024-03-12T05:16:15.583Z,1.57
2024-03-12T05:17:18.342Z,1.58
2024-03-12T05:18:21.259Z,1.58
2024-03-12T05:19:23.546Z,1.55
2024-03-12T05:20:26.202Z,1.54
2024-03-12T05:21:31.521Z,1.55
2024-03-12T05:22:33.599Z,1.57
2024-03-12T05:23:36.067Z,1.59
2024-03-12T05:24:38.341Z,1.64
2024-03-12T05:25:41.454Z,1.63
2024-03-12T05:26:46.951Z,1.69
2024-03-12T05:27:53.021Z,1.72
2024-03-12T05:28:57.416Z,1.74
2024-03-12T05:30:00.597Z,1.74
2024-03-12T05:31:04.049Z,1.75
2024-03-12T05:32:08.951Z,1.75
2024-03-12T05:33:12.973Z,1.75
2024-03-12T05:34:17.251Z,1.76
2024-03-12T05:35:21.206Z,1.75
2024-03-12T05:36:24.426Z,1.78
2024-03-12T05:37:27.682Z,1.82
2024-03-12T05:38:30.811Z,1.84
2024-03-12T05:39:34.890Z,1.86
2024-03-12T05:40:38.653Z,1.87
2024-03-12T05:41:42.028Z,1.89
2024-03-12T05:42:46.503Z,1.87
2024-03-12T05:43:51.509Z,1.85
2024-03-12T05:44:55.881Z,1.86
2024-03-12T05:45:59.578Z,1.88
2024-03-12T05:47:02.702Z,1.89
2024-03-12T05:48:06.172Z,1.90
2024-03-12T05:49:08.664Z,1.93
2024-03-12T05:50:12.038Z,1.93
2024-03-12T05:51:14.314Z,1.94
2024-03-12T05:52:16.734Z,2.00
2024-03-12T05:53:19.171Z,2.05
2024-03-12T05:54:21.541Z,2.10
2024-03-12T05:55:25.995Z,2.13
2024-03-12T05:56:28.823Z,2.17
2024-03-12T05:57:31.185Z,2.20
2024-03-12T05:58:33.852Z,2.23
2024-03-12T05:59:36.524Z,2.26
2024-03-12T06:00:39.116Z,2.27
2024-03-12T06:01:42.299Z,2.29
2024-03-12T06:02:44.830Z,2.33
2024-03-12T06:03:47.564Z,2.37
2024-03-12T06:04:50.179Z,2.38
2024-03-12T06:05:52.879Z,2.39
2024-03-12T06:06:56.123Z,2.43
2024-03-12T06:07:59.219Z,2.44
2024-03-12T06:09:01.815Z,2.48
2024-03-12T06:10:07.596Z,2.50
2024-03-12T06:11:10.942Z,2.53
2024-03-12T06:12:15.227Z,2.54
2024-03-12T06:13:19.413Z,2.57
2024-03-12T06:14:24.097Z,2.59
2024-03-12T06:15:28.176Z,2.58
2024-03-12T06:16:31.568Z,2.59
2024-03-12T06:17:35.047Z,2.58
2024-03-12T06:18:38.228Z,2.61
2024-03-12T06:19:40.654Z,2.61
2024-03-12T06:20:43.383Z,2.62
2024-03-12T06:21:45.849Z,2.61
2024-03-12T06:22:48.349Z,2.63
2024-03-12T06:23:50.940Z,2.68
2024-03-12T06:25:01.565Z,2.74
2024-03-12T06:26:04.957Z,2.77
2024-03-12T06:27:08.054Z,2.81
2024-03-12T06:28:11.291Z,2.82
2024-03-12T06:29:14.027Z,2.81
2024-03-12T06:30:17.916Z,2.79
2024-03-12T06:31:20.494Z,2.78
2024-03-12T06:32:22.949Z,2.80
2024-03-12T06:33:25.460Z,2.84
2024-03-12T06:34:27.957Z,2.88
2024-03-12T06:35:30.558Z,2.90
2024-03-12T06:36:32.991Z,2.92
2024-03-12T06:37:35.245Z,2.96
2024-03-12T06:38:37.565Z,2.97
2024-03-12T06:39:39.915Z,2.98
2024-03-12T06:40:42.858Z,3.03
2024-03-12T06:41:45.064Z,3.04
2024-03-12T06:42:47.769Z,3.06
2024-03-12T06:43:50.250Z,3.03
2024-03-12T06:44:52.699Z,2.96
2024-03-12T06:45:55.113Z,2.93
2024-03-12T06:46:57.644Z,2.89
2024-03-12T06:48:00.124Z,2.89
2024-03-12T06:49:02.561Z,2.91
2024-03-12T06:50:08.829Z,2.96
2024-03-12T06:51:11.546Z,2.99
2024-03-12T06:52:15.406Z,3.02
2024-03-12T06:53:17.979Z,3.06
2024-03-12T06:54:20.417Z,3.12
2024-03-12T06:55:25.192Z,3.13
2024-03-12T06:56:27.924Z,3.16
2024-03-12T06:57:30.348Z,3.21
2024-03-12T06:58:32.482Z,3.23
2024-03-12T06:59:35.379Z,3.28
2024-03-12T07:00:38.847Z,3.27
2024-03-12T07:01:42.254Z,3.24
2024-03-12T07:02:45.286Z,3.26
2024-03-12T07:03:49.837Z,3.25
2024-03-12T07:04:52.269Z,3.30
2024-03-12T07:05:56.179Z,3.32
2024-03-12T07:06:59.939Z,3.27
2024-03-12T07:08:05.374Z,3.28
2024-03-12T07:09:14.604Z,3.29
2024-03-12T07:10:16.832Z,3.35
2024-03-12T07:11:19.361Z,3.39
2024-03-12T07:12:21.872Z,3.46
2024-03-12T07:13:24.914Z,3.48
2024-03-12T07:14:27.533Z,3.52
2024-03-12T07:15:31.138Z,3.55
2024-03-12T07:16:33.680Z,3.56
2024-03-12T07:17:36.129Z,3.59
2024-03-12T07:18:38.649Z,3.59
2024-03-12T07:19:41.090Z,3.61
2024-03-12T07:20:43.604Z,3.66
2024-03-12T07:21:46.212Z,3.70
2024-03-12T07:22:49.392Z,3.76
2024-03-12T07:23:51.715Z,3.80
2024-03-12T07:24:54.111Z,3.83
2024-03-12T07:25:56.392Z,3.85
2024-03-12T07:27:02.093Z,3.84
2024-03-12T07:28:05.048Z,3.84
2024-03-12T07:29:07.723Z,3.86
2024-03-12T07:30:11.141Z,3.85
2024-03-12T07:31:13.890Z,3.87
2024-03-12T07:32:16.362Z,3.87
2024-03-12T07:33:18.646Z,3.86
2024-03-12T07:34:21.157Z,3.82
2024-03-12T07:35:24.057Z,3.76
2024-03-12T07:36:28.846Z,3.71
2024-03-12T07:37:36.142Z,3.68
2024-03-12T07:38:39.406Z,3.66
2024-03-12T07:39:41.961Z,3.65
2024-03-12T07:40:45.436Z,3.65
2024-03-12T07:41:48.524Z,3.67
2024-03-12T07:42:51.291Z,3.73
2024-03-12T07:43:53.648Z,3.78
2024-03-12T07:44:56.093Z,3.83
2024-03-12T07:45:58.467Z,3.88
2024-03-12T07:47:01.154Z,3.93
2024-03-12T07:48:04.264Z,3.95
2024-03-12T07:49:08.285Z,3.96
2024-03-12T07:50:12.835Z,4.02
2024-03-12T07:51:15.405Z,4.06
2024-03-12T07:52:17.945Z,4.10
2024-03-12T07:53:20.420Z,4.09
2024-03-12T07:54:22.806Z,4.05
2024-03-12T07:55:27.073Z,4.06
2024-03-12T07:56:30.471Z,4.04
2024-03-12T07:57:33.525Z,4.01
2024-03-12T07:58:36.121Z,4.05
2024-03-12T07:59:38.747Z,4.08
2024-03-12T08:00:41.263Z,4.09
2024-03-12T08:01:44.382Z,4.07
2024-03-12T08:02:46.903Z,4.09
2024-03-12T08:03:49.322Z,4.06
2024-03-12T08:04:51.936Z,4.08
2024-03-12T08:05:54.207Z,4.10
2024-03-12T08:06:56.888Z,4.10
2024-03-12T08:07:59.339Z,4.12
2024-03-12T08:09:01.760Z,4.14
2024-03-12T08:10:06.193Z,4.15
2024-03-12T08:11:08.550Z,4.16
2024-03-12T08:12:12.876Z,4.14
2024-03-12T08:13:16.973Z,4.10
2024-03-12T08:14:19.667Z,4.10
2024-03-12T08:15:22.007Z,4.06
2024-03-12T08:16:24.640Z,4.06
2024-03-12T08:17:26.933Z,4.05
2024-03-12T08:18:29.871Z,4.06
2024-03-12T08:19:33.625Z,4.05
2024-03-12T08:20:36.700Z,4.02
2024-03-12T08:21:39.803Z,3.94
2024-03-12T08:22:42.142Z,3.95
2024-03-12T08:23:44.789Z,3.96
2024-03-12T08:24:47.439Z,3.93
2024-03-12T08:25:56.422Z,3.85
2024-03-12T08:26:54.248Z,3.77
2024-03-12T08:27:56.660Z,3.75
2024-03-12T08:28:59.292Z,3.76
2024-03-12T08:30:01.692Z,3.79
2024-03-12T08:31:11.017Z,3.76
2024-03-12T08:32:08.600Z,3.77
2024-03-12T08:33:11.115Z,3.77
2024-03-12T08:34:13.829Z,3.77
2024-03-12T08:35:16.837Z,3.78
2024-03-12T08:36:19.602Z,3.78
2024-03-12T08:37:22.256Z,3.81
2024-03-12T08:38:25.094Z,3.80
2024-03-12T08:39:28.614Z,3.75
2024-03-12T08:40:32.122Z,3.75
2024-03-12T08:41:34.793Z,3.72
2024-03-12T08:42:44.890Z,3.69
2024-03-12T08:43:41.922Z,3.70
2024-03-12T08:44:44.346Z,3.72
2024-03-12T08:45:46.834Z,3.69
2024-03-12T08:46:49.465Z,3.71
2024-03-12T08:47:51.759Z,3.75
2024-03-12T08:48:54.282Z,3.80
2024-03-12T08:49:56.751Z,3.82
2024-03-12T08:50:59.844Z,3.82
2024-03-12T08:52:02.448Z,3.80
2024-03-12T08:53:04.981Z,3.77
2024-03-12T08:54:09.301Z,3.80
2024-03-12T08:55:11.778Z,3.81
2024-03-12T08:56:14.553Z,3.85
2024-03-12T08:57:17.183Z,3.90
2024-03-12T08:58:19.555Z,3.89
2024-03-12T08:59:22.187Z,3.92
2024-03-12T09:00:24.785Z,3.94
2024-03-12T09:01:27.624Z,3.97
2024-03-12T09:02:30.462Z,4.00
2024-03-12T09:03:33.417Z,4.03
2024-03-12T09:04:37.475Z,4.05
2024-03-12T09:05:40.073Z,4.05
2024-03-12T09:06:42.753Z,4.07
2024-03-12T09:07:45.217Z,4.08
2024-03-12T09:08:47.674Z,4.05
2024-03-12T09:09:52.511Z,4.07
2024-03-12T09:10:54.719Z,4.09
2024-03-12T09:11:57.403Z,4.09
2024-03-12T09:13:00.970Z,4.13
2024-03-12T09:14:04.472Z,4.15
2024-03-12T09:15:07.888Z,4.17
2024-03-12T09:16:11.055Z,4.21
2024-03-12T09:17:13.740Z,4.19
2024-03-12T09:18:16.436Z,4.18
2024-03-12T09:19:18.985Z,4.15
2024-03-12T09:20:22.165Z,4.13
2024-03-12T09:21:24.727Z,4.12
2024-03-12T09:22:27.105Z,4.10
2024-03-12T09:23:29.617Z,4.06
2024-03-12T09:24:32.056Z,4.09
2024-03-12T09:25:34.404Z,4.10
2024-03-12T09:26:37.274Z,4.06
2024-03-12T09:27:39.975Z,4.09
2024-03-12T09:28:43.097Z,4.07
2024-03-12T09:29:45.574Z,4.11
2024-03-12T09:30:48.283Z,4.13
2024-03-12T09:31:50.919Z,4.16
2024-03-12T09:32:54.878Z,4.17
2024-03-12T09:33:57.869Z,4.19
2024-03-12T09:35:00.922Z,4.23
2024-03-12T09:36:04.367Z,4.28
2024-03-12T09:37:08.289Z,4.27
2024-03-12T09:38:11.544Z,4.24
2024-03-12T09:39:13.903Z,4.24
2024-03-12T09:40:16.802Z,4.27
2024-03-12T09:41:21.290Z,4.26
2024-03-12T09:42:25.522Z,4.27
2024-03-12T09:43:30.927Z,4.29
2024-03-12T09:44:39.044Z,4.28
2024-03-12T09:45:41.848Z,4.30
2024-03-12T09:46:44.627Z,4.30
2024-03-12T09:47:47.040Z,4.29
2024-03-12T09:48:51.130Z,4.31
2024-03-12T09:49:53.897Z,4.33
2024-03-12T09:50:58.520Z,4.37
2024-03-12T09:52:02.244Z,4.40
2024-03-12T09:53:04.772Z,4.41
2024-03-12T09:54:07.342Z,4.46
2024-03-12T09:55:10.926Z,4.52
2024-03-12T09:56:14.285Z,4.58
2024-03-12T09:57:17.528Z,4.60
2024-03-12T09:58:20.418Z,4.63
2024-03-12T09:59:23.161Z,4.65
2024-03-12T10:00:26.259Z,4.68
2024-03-12T10:01:49.217Z,4.68
2024-03-12T10:02:52.361Z,4.69
2024-03-12T10:03:55.237Z,4.71
2024-03-12T10:04:57.761Z,4.72
2024-03-12T10:06:00.196Z,4.71
2024-03-12T10:07:02.667Z,4.73
2024-03-12T10:08:11.032Z,4.73
2024-03-12T10:09:13.402Z,4.74
2024-03-12T10:10:17.760Z,4.76
2024-03-12T10:11:20.896Z,4.78
2024-03-12T10:12:23.446Z,4.78
2024-03-12T10:13:25.916Z,4.76
2024-03-12T10:14:28.896Z,4.77
2024-03-12T10:15:32.063Z,4.76
2024-03-12T10:16:34.657Z,4.73
2024-03-12T10:17:37.250Z,4.70
2024-03-12T10:18:39.728Z,4.66
2024-03-12T10:19:47.031Z,4.64
2024-03-12T10:20:51.780Z,4.63
2024-03-12T10:21:54.300Z,4.68
2024-03-12T10:23:07.136Z,4.69
2024-03-12T10:24:12.271Z,4.69
2024-03-12T10:25:14.685Z,4.70
2024-03-12T10:26:17.944Z,4.70
2024-03-12T10:27:20.692Z,4.68
2024-03-12T10:28:24.451Z,4.62
2024-03-12T10:29:30.387Z,4.65
2024-03-12T10:30:32.951Z,4.65
2024-03-12T10:31:35.669Z,4.63
2024-03-12T10:32:38.152Z,4.67
2024-03-12T10:33:45.194Z,4.71
2024-03-12T10:34:48.478Z,4.73
2024-03-12T10:35:50.948Z,4.74
2024-03-12T10:36:53.361Z,4.79
2024-03-12T10:37:55.981Z,4.83
2024-03-12T10:38:59.675Z,4.82
2024-03-12T10:40:15.166Z,4.82
2024-03-12T10:41:19.272Z,4.78
2024-03-12T10:42:24.818Z,4.75
2024-03-12T10:43:27.311Z,4.75
2024-03-12T10:44:32.569Z,4.75
2024-03-12T10:45:35.916Z,4.76
2024-03-12T10:47:49.826Z,4.88
2024-03-12T10:48:55.515Z,4.76
2024-03-12T10:49:59.141Z,4.75
2024-03-12T10:51:02.379Z,4.75
2024-03-12T10:52:05.719Z,4.76
2024-03-12T10:53:10.729Z,4.78
2024-03-12T10:54:16.820Z,4.77
2024-03-12T10:55:22.521Z,4.77
2024-03-12T10:56:25.188Z,4.72
2024-03-12T10:57:29.322Z,4.70
2024-03-12T10:58:33.924Z,4.69
2024-03-12T10:59:36.990Z,4.72
2024-03-12T11:00:39.790Z,4.69
2024-03-12T11:02:55.763Z,4.78
2024-03-12T11:04:00.273Z,4.63
2024-03-12T11:05:03.041Z,4.63
2024-03-12T11:06:07.707Z,4.59
2024-03-12T11:07:10.720Z,4.58
2024-03-12T11:08:14.183Z,4.56
2024-03-12T11:09:16.686Z,4.58
2024-03-12T11:10:20.396Z,4.57
2024-03-12T11:11:23.787Z,4.58
2024-03-12T11:12:26.944Z,4.57
2024-03-12T11:13:29.358Z,4.60
2024-03-12T11:14:32.175Z,4.62
2024-03-12T11:15:36.130Z,4.63
2024-03-12T11:16:38.961Z,4.64
2024-03-12T11:17:49.174Z,4.64
2024-03-12T11:18:52.328Z,4.62
2024-03-12T11:20:02.867Z,4.62
2024-03-12T11:21:04.537Z,4.57
2024-03-12T11:22:11.734Z,4.55
2024-03-12T11:23:14.775Z,4.50
2024-03-12T11:24:27.867Z,4.50
2024-03-12T11:26:51.959Z,4.67
2024-03-12T11:28:16.842Z,4.55
2024-03-12T11:29:19.388Z,4.55
2024-03-12T11:30:25.947Z,4.55
2024-03-12T11:31:39.685Z,4.50
2024-03-12T11:32:47.593Z,4.48
2024-03-12T11:33:51.507Z,4.51
2024-03-12T11:34:55.424Z,4.57
2024-03-12T11:35:59.760Z,4.63
2024-03-12T11:37:14.546Z,4.65
2024-03-12T11:38:18.841Z,4.60
2024-03-12T11:39:24.948Z,4.56
2024-03-12T11:40:32.674Z,4.45
2024-03-12T11:42:02.120Z,4.38
2024-03-12T11:43:04.961Z,4.29
2024-03-12T11:44:08.291Z,4.19
2024-03-12T11:45:32.115Z,4.12
2024-03-12T11:46:42.434Z,4.05
2024-03-12T11:47:58.270Z,4.00
2024-03-12T11:49:01.014Z,4.01
2024-03-12T11:50:05.320Z,3.99
2024-03-12T11:51:10.932Z,3.98
2024-03-12T11:52:17.036Z,4.01
2024-03-12T11:53:25.075Z,4.02
2024-03-12T11:56:12.573Z,4.07
2024-03-12T11:57:28.727Z,3.94
2024-03-12T11:58:34.228Z,3.93
2024-03-12T11:59:36.891Z,3.88
2024-03-12T12:00:40.120Z,3.90
2024-03-12T12:01:43.588Z,3.91
2024-03-12T12:02:46.762Z,3.93
2024-03-12T12:04:01.989Z,3.94
2024-03-12T12:05:05.328Z,3.92
2024-03-12T12:06:09.359Z,3.83
2024-03-12T12:07:15.341Z,3.76
2024-03-12T12:08:19.327Z,3.69
2024-03-12T12:09:21.919Z,3.64
2024-03-12T12:10:25.213Z,3.58
2024-03-12T12:11:28.207Z,3.47
2024-03-12T12:12:31.235Z,3.31
2024-03-12T12:13:34.001Z,3.21
2024-03-12T12:14:37.102Z,3.12
2024-03-12T12:15:39.604Z,3.04
2024-03-12T12:16:42.250Z,3.00
2024-03-12T12:17:44.760Z,2.97
2024-03-12T12:18:47.086Z,2.91
2024-03-12T12:20:06.332Z,2.91
2024-03-12T12:21:15.780Z,2.91
2024-03-12T12:22:18.304Z,2.89
2024-03-12T12:23:21.146Z,2.84
2024-03-12T12:24:24.755Z,2.81
2024-03-12T12:25:28.950Z,2.76
2024-03-12T12:26:32.167Z,2.78
2024-03-12T12:27:35.151Z,2.73
2024-03-12T12:28:37.476Z,2.69
2024-03-12T12:29:39.933Z,2.65
2024-03-12T12:30:43.787Z,2.63
2024-03-12T12:31:46.884Z,2.60
2024-03-12T12:32:51.597Z,2.56
2024-03-12T12:33:55.141Z,2.51
2024-03-12T12:34:59.874Z,2.47
2024-03-12T12:36:09.541Z,2.44
2024-03-12T12:37:12.200Z,2.43
2024-03-12T12:38:15.370Z,2.42
2024-03-12T12:39:18.079Z,2.45
2024-03-12T12:40:21.767Z,2.45
2024-03-12T12:41:24.596Z,2.47
2024-03-12T12:42:27.160Z,2.46
2024-03-12T12:43:34.357Z,2.48
2024-03-12T12:44:36.814Z,2.52
2024-03-12T12:45:39.618Z,2.56
2024-03-12T12:46:43.134Z,2.58
2024-03-12T12:47:48.765Z,2.62
2024-03-12T12:48:51.507Z,2.63
2024-03-12T12:49:54.006Z,2.68
2024-03-12T12:50:57.646Z,2.66
2024-03-12T12:52:00.118Z,2.70
2024-03-12T12:53:03.440Z,2.72
2024-03-12T12:54:06.056Z,2.70
2024-03-12T12:55:09.116Z,2.71
2024-03-12T12:56:11.806Z,2.73
2024-03-12T12:57:14.382Z,2.73
2024-03-12T12:58:20.434Z,2.72
2024-03-12T12:59:23.112Z,2.68
2024-03-12T13:00:25.774Z,2.62
2024-03-12T13:01:28.865Z,2.54
2024-03-12T13:02:31.282Z,2.51
2024-03-12T13:04:44.961Z,2.62
2024-03-12T13:05:48.021Z,2.51
2024-03-12T13:06:55.173Z,2.55
2024-03-12T13:07:58.994Z,2.61
2024-03-12T13:09:01.573Z,2.64
2024-03-12T13:10:11.356Z,2.66
2024-03-12T13:11:17.466Z,2.63
2024-03-12T13:12:20.064Z,2.60
2024-03-12T13:13:22.728Z,2.57
2024-03-12T13:14:25.247Z,2.55
2024-03-12T13:15:29.826Z,2.55
2024-03-12T13:16:32.530Z,2.55
2024-03-12T13:17:35.038Z,2.59
2024-03-12T13:18:39.920Z,2.63
2024-03-12T13:19:43.018Z,2.66
2024-03-12T13:20:49.951Z,2.67
2024-03-12T13:21:52.585Z,2.71
2024-03-12T13:22:55.276Z,2.72
2024-03-12T13:23:58.236Z,2.71
2024-03-12T13:25:00.596Z,2.71
2024-03-12T13:26:04.290Z,2.69
2024-03-12T13:27:06.525Z,2.66
2024-03-12T13:28:08.963Z,2.66
2024-03-12T13:29:11.540Z,2.66
2024-03-12T13:30:14.981Z,2.67
2024-03-12T13:31:17.892Z,2.67
2024-03-12T13:32:20.682Z,2.64
2024-03-12T13:33:23.537Z,2.64
2024-03-12T13:34:29.359Z,2.65
2024-03-12T13:35:32.702Z,2.65
2024-03-12T13:36:35.369Z,2.67
2024-03-12T13:37:40.544Z,2.71
2024-03-12T13:38:43.346Z,2.71
2024-03-12T13:39:45.750Z,2.69
2024-03-12T13:40:48.269Z,2.69
2024-03-12T13:41:50.595Z,2.69
2024-03-12T13:42:56.382Z,2.72
2024-03-12T13:43:59.759Z,2.79
2024-03-12T13:45:02.200Z,2.81
2024-03-12T13:46:05.528Z,2.85
2024-03-12T13:47:08.233Z,2.87
2024-03-12T13:48:11.081Z,2.89
2024-03-12T13:49:15.818Z,2.86
2024-03-12T13:50:18.853Z,2.81
2024-03-12T13:51:21.329Z,2.78
2024-03-12T13:52:24.020Z,2.75
2024-03-12T13:54:37.063Z,2.77
2024-03-12T13:55:39.678Z,2.65
2024-03-12T13:56:42.507Z,2.66
2024-03-12T13:57:45.568Z,2.68
2024-03-12T13:58:49.766Z,2.70
2024-03-12T13:59:53.490Z,2.73
2024-03-12T14:00:58.722Z,2.74
2024-03-12T14:02:01.928Z,2.74
2024-03-12T14:03:05.627Z,2.74
2024-03-12T14:04:08.152Z,2.76
2024-03-12T14:05:10.869Z,2.75
2024-03-12T14:06:13.740Z,2.77
2024-03-12T14:07:16.278Z,2.78
2024-03-12T14:08:20.219Z,2.76
2024-03-12T14:09:22.655Z,2.76
2024-03-12T14:10:25.669Z,2.72
2024-03-12T14:11:28.214Z,2.68
2024-03-12T14:12:30.891Z,2.65
2024-03-12T14:13:33.440Z,2.61
2024-03-12T14:14:35.938Z,2.63
2024-03-12T14:15:38.571Z,2.62
2024-03-12T14:16:41.353Z,2.58